createdAt,value
2023-06-04T00:02:22.087Z,0.80
2023-06-04T00:04:49.241Z,0.90
2023-06-04T00:07:16.300Z,0.90
2023-06-04T00:09:43.346Z,0.77
2023-06-04T00:12:10.415Z,0.80
2023-06-04T00:14:39.945Z,1.00
2023-06-04T00:17:06.949Z,0.80
2023-06-04T00:19:33.835Z,1.10
2023-06-04T00:22:00.860Z,1.00
2023-06-04T00:24:27.786Z,0.90
2023-06-04T00:26:54.737Z,0.73
2023-06-04T00:29:21.677Z,0.73
2023-06-04T00:31:51.225Z,0.93
2023-06-04T00:34:18.800Z,0.90
2023-06-04T00:36:45.808Z,0.90
2023-06-04T00:39:12.780Z,0.83
2023-06-04T00:41:39.731Z,0.90
2023-06-04T00:44:06.647Z,0.87
2023-06-04T00:46:34.343Z,1.20
2023-06-04T00:49:06.377Z,0.90
2023-06-04T00:51:33.549Z,0.83
2023-06-04T00:54:04.198Z,1.07
2023-06-04T00:56:31.179Z,1.00
2023-06-04T00:58:58.120Z,0.70
2023-06-04T01:01:31.625Z,0.80
2023-06-04T01:04:01.295Z,1.00
2023-06-04T01:06:38.281Z,0.80
2023-06-04T01:09:06.230Z,0.80
2023-06-04T01:11:34.862Z,0.83
2023-06-04T01:14:01.955Z,0.77
2023-06-04T01:16:33.984Z,0.83
2023-06-04T01:19:05.755Z,0.70
2023-06-04T01:21:36.808Z,0.90
2023-06-04T01:24:06.894Z,0.83
2023-06-04T01:26:34.046Z,0.80
2023-06-04T01:29:02.460Z,0.80
2023-06-04T01:31:30.037Z,1.00
2023-06-04T01:33:57.303Z,0.77
2023-06-04T01:36:24.246Z,0.80
2023-06-04T01:38:53.820Z,1.10
2023-06-04T01:41:20.764Z,1.10
2023-06-04T01:43:47.928Z,1.00
2023-06-04T01:46:14.999Z,0.93
2023-06-04T01:48:42.031Z,1.00
2023-06-04T01:51:09.310Z,0.80
2023-06-04T01:53:36.543Z,0.97
2023-06-04T01:56:06.356Z,1.20
2023-06-04T01:58:33.387Z,0.90
2023-06-04T02:01:00.344Z,0.70
2023-06-04T02:03:27.545Z,1.03
2023-06-04T02:05:54.578Z,0.90
2023-06-04T02:08:21.501Z,1.00
2023-06-04T02:10:49.263Z,0.90
2023-06-04T02:13:18.808Z,0.80
2023-06-04T02:15:45.737Z,1.00
2023-06-04T02:18:15.941Z,1.27
2023-06-04T02:20:42.925Z,0.70
2023-06-04T02:23:09.838Z,0.87
2023-06-04T02:25:36.748Z,0.90
2023-06-04T02:28:03.703Z,0.70
2023-06-04T02:30:33.647Z,0.90
2023-06-04T02:33:00.622Z,0.80
2023-06-04T02:35:27.745Z,0.77
2023-06-04T02:37:54.740Z,0.80
2023-06-04T02:40:21.666Z,0.90
2023-06-04T02:42:48.580Z,0.70
2023-06-04T02:45:15.573Z,1.00
2023-06-04T02:47:45.112Z,1.00
2023-06-04T02:50:12.947Z,0.80
2023-06-04T02:52:41.323Z,0.70
2023-06-04T02:55:10.206Z,0.80
2023-06-04T02:57:37.147Z,0.90
2023-06-04T03:00:05.482Z,0.80
2023-06-04T03:02:32.410Z,0.90
2023-06-04T03:05:01.998Z,1.00
2023-06-04T03:07:28.907Z,1.00
2023-06-04T03:09:55.850Z,0.80
2023-06-04T03:12:22.779Z,0.90
2023-06-04T03:14:49.689Z,0.83
2023-06-04T03:17:16.671Z,1.10
2023-06-04T03:19:43.606Z,0.90
2023-06-04T03:22:13.176Z,0.90
2023-06-04T03:24:41.424Z,1.17
2023-06-04T03:27:09.504Z,1.10
2023-06-04T03:29:36.819Z,1.00
2023-06-04T03:32:04.756Z,0.90
2023-06-04T03:34:34.589Z,0.87
2023-06-04T03:37:02.617Z,0.80
2023-06-04T03:39:32.162Z,1.00
2023-06-04T03:41:59.075Z,1.00
2023-06-04T03:44:26.010Z,0.80
2023-06-04T03:46:53.491Z,1.20
2023-06-04T03:49:20.780Z,1.30
2023-06-04T03:51:47.858Z,1.00
2023-06-04T03:54:15.221Z,1.10
2023-06-04T03:56:45.232Z,0.73
2023-06-04T03:59:12.221Z,0.80
2023-06-04T04:01:39.176Z,0.80
2023-06-04T04:04:06.129Z,1.03
2023-06-04T04:06:33.236Z,1.10
2023-06-04T04:09:00.262Z,1.10
2023-06-04T04:11:27.216Z,1.00
2023-06-04T04:13:57.707Z,0.97
2023-06-04T04:16:24.734Z,1.03
2023-06-04T04:18:51.723Z,0.90
2023-06-04T04:21:18.649Z,1.10
2023-06-04T04:23:46.656Z,1.00
2023-06-04T04:26:13.709Z,1.07
2023-06-04T04:28:40.630Z,0.90
2023-06-04T04:31:10.434Z,0.90
2023-06-04T04:33:37.976Z,0.87
2023-06-04T04:36:04.944Z,1.03
2023-06-04T04:38:32.054Z,0.80
2023-06-04T04:40:59.112Z,0.97
2023-06-04T04:43:32.988Z,0.83
2023-06-04T04:46:00.315Z,1.03
2023-06-04T04:48:29.947Z,0.77
2023-06-04T04:50:56.905Z,0.80
2023-06-04T04:53:23.900Z,1.00
2023-06-04T04:55:50.895Z,0.90
2023-06-04T04:58:18.849Z,0.83
2023-06-04T05:00:45.824Z,0.60
2023-06-04T05:03:12.761Z,1.00
2023-06-04T05:05:45.265Z,0.70
2023-06-04T05:08:12.862Z,0.70
2023-06-04T05:10:39.820Z,0.87
2023-06-04T05:13:06.764Z,0.73
2023-06-04T05:15:33.775Z,1.07
2023-06-04T05:18:01.003Z,0.70
2023-06-04T05:20:27.946Z,1.00
2023-06-04T05:22:57.480Z,0.90
2023-06-04T05:25:24.457Z,1.10
2023-06-04T05:27:51.452Z,0.70
2023-06-04T05:30:18.561Z,0.90
2023-06-04T05:32:45.587Z,0.77
2023-06-04T05:35:12.522Z,1.20
2023-06-04T05:37:39.943Z,0.90
2023-06-04T05:40:10.642Z,1.10
2023-06-04T05:42:37.913Z,1.10
2023-06-04T05:45:06.119Z,0.90
2023-06-04T05:47:33.121Z,0.80
2023-06-04T05:50:00.165Z,0.70
2023-06-04T05:52:27.167Z,0.70
2023-06-04T05:54:54.072Z,0.80
2023-06-04T05:57:23.958Z,1.00
2023-06-04T05:59:50.858Z,0.80
2023-06-04T06:02:17.967Z,0.87
2023-06-04T06:04:45.072Z,1.00
2023-06-04T06:07:12.067Z,0.90
2023-06-04T06:09:39.083Z,0.90
2023-06-04T06:12:06.327Z,1.00
2023-06-04T06:14:35.823Z,1.10
2023-06-04T06:17:02.811Z,0.80
2023-06-04T06:19:30.014Z,0.90
2023-06-04T06:21:56.931Z,0.80
2023-06-04T06:24:23.847Z,0.90
2023-06-04T06:26:50.794Z,0.80
2023-06-04T06:29:17.704Z,0.70
2023-06-04T06:31:47.394Z,0.80
2023-06-04T06:34:14.713Z,1.00
2023-06-04T06:36:41.631Z,0.90
2023-06-04T06:39:08.583Z,0.97
2023-06-04T06:41:35.520Z,0.97
2023-06-04T06:44:02.430Z,1.00
2023-06-04T06:46:29.344Z,0.90
2023-06-04T06:48:59.037Z,0.90
2023-06-04T06:51:26.079Z,0.87
2023-06-04T06:53:53.040Z,0.80
2023-06-04T06:56:20.000Z,0.67
2023-06-04T06:58:46.926Z,1.20
2023-06-04T07:01:14.781Z,0.90
2023-06-04T07:03:41.789Z,0.77
2023-06-04T07:06:11.338Z,0.80
2023-06-04T07:08:38.314Z,1.00
2023-06-04T07:11:05.664Z,0.93
2023-06-04T07:13:32.765Z,0.67
2023-06-04T07:15:59.811Z,0.70
2023-06-04T07:18:26.814Z,0.73
2023-06-04T07:20:56.234Z,0.83
2023-06-04T07:23:27.219Z,0.70
2023-06-04T07:25:54.143Z,0.80
2023-06-04T07:28:21.067Z,0.70
2023-06-04T07:30:48.248Z,0.87
2023-06-04T07:33:15.191Z,1.00
2023-06-04T07:35:42.142Z,0.90
2023-06-04T07:38:09.041Z,0.60
2023-06-04T07:40:38.597Z,0.80
2023-06-04T07:43:05.508Z,0.80
2023-06-04T07:45:34.900Z,1.00
2023-06-04T07:48:03.085Z,0.63
2023-06-04T07:50:31.376Z,0.70
2023-06-04T07:52:59.482Z,0.90
2023-06-04T07:55:26.381Z,0.90
2023-06-04T07:57:55.906Z,0.90
2023-06-04T08:00:22.828Z,0.90
2023-06-04T08:02:49.972Z,1.00
2023-06-04T08:05:17.295Z,0.90
2023-06-04T08:07:44.227Z,0.77
2023-06-04T08:10:11.428Z,0.90
2023-06-04T08:12:38.403Z,1.00
2023-06-04T08:15:08.938Z,0.80
2023-06-04T08:17:36.065Z,0.70
2023-06-04T08:20:03.349Z,0.80
2023-06-04T08:22:30.270Z,0.70
2023-06-04T08:24:57.191Z,0.80
2023-06-04T08:27:24.134Z,0.80
2023-06-04T08:29:51.077Z,0.80
2023-06-04T08:32:20.594Z,0.90
2023-06-04T08:34:47.551Z,0.80
2023-06-04T08:37:14.530Z,0.80
2023-06-04T08:39:41.456Z,0.90
2023-06-04T08:42:10.978Z,0.70
2023-06-04T08:44:38.167Z,0.67
2023-06-04T08:47:06.820Z,0.80
2023-06-04T08:49:37.387Z,1.00
2023-06-04T08:52:04.823Z,1.00
2023-06-04T08:54:32.599Z,0.97
2023-06-04T08:57:01.697Z,0.83
2023-06-04T08:59:28.934Z,0.90
2023-06-04T09:01:56.654Z,1.03
2023-06-04T09:04:24.095Z,0.90
2023-06-04T09:06:54.648Z,0.83
2023-06-04T09:09:22.987Z,0.90
2023-06-04T09:11:52.698Z,1.00
2023-06-04T09:14:20.406Z,1.10
2023-06-04T09:16:49.046Z,0.80
2023-06-04T09:19:16.405Z,0.90
2023-06-04T09:21:56.327Z,0.80
2023-06-04T09:24:38.521Z,0.70
2023-06-04T09:27:11.175Z,1.03
2023-06-04T09:29:38.112Z,1.00
2023-06-04T09:32:05.832Z,0.73
2023-06-04T09:34:32.797Z,0.73
2023-06-04T09:37:02.304Z,0.77
2023-06-04T09:39:29.281Z,0.73
2023-06-04T09:41:59.874Z,0.87
2023-06-04T09:44:26.824Z,0.73
2023-06-04T09:46:57.297Z,1.00
2023-06-04T09:49:24.381Z,0.80
2023-06-04T09:51:51.868Z,0.90
2023-06-04T09:54:21.390Z,0.80
2023-06-04T09:56:48.356Z,0.90
2023-06-04T09:59:15.770Z,0.90
2023-06-04T10:01:42.790Z,0.80
2023-06-04T10:04:10.708Z,0.90
2023-06-04T10:06:37.757Z,0.80
2023-06-04T10:09:06.736Z,0.70
2023-06-04T10:11:38.731Z,0.90
2023-06-04T10:14:12.596Z,0.80
2023-06-04T10:16:41.068Z,0.80
2023-06-04T10:19:08.951Z,0.83
2023-06-04T10:21:36.402Z,0.83
2023-06-04T10:24:04.354Z,1.00
2023-06-04T10:26:33.746Z,0.83
2023-06-04T10:29:03.557Z,0.83
2023-06-04T10:31:30.763Z,0.90
2023-06-04T10:33:59.162Z,0.80
2023-06-04T10:36:26.516Z,1.00
2023-06-04T10:38:56.458Z,0.90
2023-06-04T10:41:24.666Z,0.80
2023-06-04T10:43:53.675Z,1.10
2023-06-04T10:46:23.198Z,0.80
2023-06-04T10:48:51.513Z,0.90
2023-06-04T10:51:30.347Z,1.00
2023-06-04T10:53:57.517Z,0.80
2023-06-04T10:56:27.838Z,0.90
2023-06-04T10:58:54.788Z,0.65
2023-06-04T11:01:28.494Z,1.00
2023-06-04T11:03:55.567Z,1.00
2023-06-04T11:06:22.754Z,0.93
2023-06-04T11:08:49.852Z,1.00
2023-06-04T11:11:17.807Z,0.70
2023-06-04T11:13:45.103Z,0.80
2023-06-04T11:16:18.931Z,0.82
2023-06-04T11:18:58.431Z,0.93
2023-06-04T11:21:27.846Z,0.80
2023-06-04T11:23:56.677Z,1.02
2023-06-04T11:26:23.732Z,0.70
2023-06-04T11:28:50.738Z,0.90
2023-06-04T11:31:17.777Z,0.90
2023-06-04T11:33:45.410Z,0.90
2023-06-04T11:36:23.494Z,0.85
2023-06-04T11:38:55.832Z,0.80
2023-06-04T11:41:22.789Z,0.73
2023-06-04T11:43:49.999Z,1.17
2023-06-04T11:46:17.163Z,1.05
2023-06-04T11:48:45.192Z,0.90
2023-06-04T11:51:14.864Z,0.90
2023-06-04T11:53:42.086Z,0.88
2023-06-04T11:56:09.183Z,1.00
2023-06-04T11:58:36.374Z,0.90
2023-06-04T12:01:03.573Z,0.80
2023-06-04T12:03:37.492Z,0.80
2023-06-04T12:06:17.494Z,1.17
2023-06-04T12:08:49.199Z,0.82
2023-06-04T12:11:30.545Z,0.90
2023-06-04T12:13:58.258Z,0.80
2023-06-04T12:16:25.597Z,1.17
2023-06-04T12:18:52.812Z,1.00
2023-06-04T12:21:24.683Z,0.88
2023-06-04T12:23:51.727Z,0.93
2023-06-04T12:26:22.907Z,1.00
2023-06-04T12:28:59.899Z,0.90
2023-06-04T12:31:26.885Z,0.80
2023-06-04T12:33:54.571Z,0.82
2023-06-04T12:36:24.225Z,1.08
2023-06-04T12:38:51.141Z,0.80
2023-06-04T12:41:18.077Z,0.93
2023-06-04T12:43:46.023Z,1.00
2023-06-04T12:46:13.043Z,0.80
2023-06-04T12:48:40.085Z,0.90
2023-06-04T12:51:08.453Z,0.85
2023-06-04T12:53:39.856Z,1.00
2023-06-04T12:56:07.093Z,0.90
2023-06-04T12:58:34.342Z,0.80
2023-06-04T13:01:01.394Z,0.98
2023-06-04T13:03:28.905Z,0.82
2023-06-04T13:05:55.986Z,0.88
2023-06-04T13:08:23.019Z,1.17
2023-06-04T13:10:53.217Z,1.10
2023-06-04T13:13:20.667Z,0.82
2023-06-04T13:15:47.726Z,0.77
2023-06-04T13:18:14.713Z,1.20
2023-06-04T13:20:42.519Z,0.90
2023-06-04T13:23:09.819Z,1.00
2023-06-04T13:25:36.777Z,0.98
2023-06-04T13:28:06.910Z,1.10
2023-06-04T13:30:33.977Z,0.90
2023-06-04T13:33:01.023Z,0.95
2023-06-04T13:35:28.124Z,0.85
2023-06-04T13:37:55.107Z,1.00
2023-06-04T13:40:22.039Z,1.00
2023-06-04T13:42:48.991Z,1.00
2023-06-04T13:45:18.730Z,0.77
2023-06-04T13:47:45.905Z,0.90
2023-06-04T13:50:12.923Z,0.80
2023-06-04T13:52:39.833Z,0.90
2023-06-04T13:55:08.127Z,1.10
2023-06-04T13:57:35.096Z,1.00
2023-06-04T14:00:02.125Z,1.00
2023-06-04T14:02:31.842Z,1.00
2023-06-04T14:04:58.965Z,1.13
2023-06-04T14:07:25.948Z,0.90
2023-06-04T14:09:52.924Z,1.10
2023-06-04T14:12:19.886Z,0.97
2023-06-04T14:14:46.825Z,1.10
2023-06-04T14:17:13.790Z,0.93
2023-06-04T14:19:43.536Z,1.00
2023-06-04T14:22:11.508Z,1.03
2023-06-04T14:24:38.760Z,1.10
2023-06-04T14:27:06.148Z,1.00
2023-06-04T14:29:33.151Z,1.00
2023-06-04T14:32:00.169Z,1.10
2023-06-04T14:34:27.237Z,1.00
2023-06-04T14:36:57.213Z,0.90
2023-06-04T14:39:24.235Z,1.10
2023-06-04T14:41:51.190Z,1.00
2023-06-04T14:44:18.165Z,1.10
2023-06-04T14:46:45.447Z,1.07
2023-06-04T14:49:12.493Z,1.20
2023-06-04T14:51:39.474Z,1.20
2023-06-04T14:54:09.082Z,1.03
2023-06-04T14:56:36.022Z,0.90
2023-06-04T14:59:02.989Z,1.00
2023-06-04T15:01:29.934Z,0.90
2023-06-04T15:03:56.936Z,1.00
2023-06-04T15:06:23.882Z,1.00
2023-06-04T15:08:50.787Z,1.10
2023-06-04T15:11:20.401Z,1.10
2023-06-04T15:13:47.406Z,1.00
2023-06-04T15:16:14.445Z,1.00
2023-06-04T15:18:41.614Z,1.40
2023-06-04T15:21:08.853Z,1.10
2023-06-04T15:23:36.127Z,1.17
2023-06-04T15:26:03.090Z,1.10
2023-06-04T15:28:32.614Z,1.23
2023-06-04T15:30:59.578Z,1.30
2023-06-04T15:33:26.528Z,1.20
2023-06-04T15:35:53.428Z,1.33
2023-06-04T15:38:20.362Z,1.37
2023-06-04T15:40:47.390Z,1.23
2023-06-04T15:43:14.349Z,1.40
2023-06-04T15:45:43.931Z,1.53
2023-06-04T15:48:10.889Z,1.30
2023-06-04T15:50:37.910Z,1.20
2023-06-04T15:53:04.850Z,1.00
2023-06-04T15:55:31.748Z,1.20
2023-06-04T15:57:58.655Z,0.90
2023-06-04T16:00:25.645Z,1.30
2023-06-04T16:02:55.244Z,1.00
2023-06-04T16:05:22.186Z,0.90
2023-06-04T16:07:49.118Z,1.10
2023-06-04T16:10:16.055Z,1.13
2023-06-04T16:12:42.993Z,0.90
2023-06-04T16:15:11.188Z,1.10
2023-06-04T16:17:38.176Z,1.40
2023-06-04T16:20:09.223Z,1.30
2023-06-04T16:22:36.157Z,1.50
2023-06-04T16:25:03.567Z,1.43
2023-06-04T16:27:30.463Z,1.30
2023-06-04T16:29:57.437Z,1.43
2023-06-04T16:32:24.479Z,1.30
2023-06-04T16:34:51.562Z,1.60
2023-06-04T16:37:21.050Z,1.50
2023-06-04T16:39:47.995Z,1.80
2023-06-04T16:42:14.968Z,1.93
2023-06-04T16:44:41.884Z,1.77
2023-06-04T16:47:09.099Z,1.77
2023-06-04T16:49:36.210Z,1.97
2023-06-04T16:52:03.279Z,1.93
2023-06-04T16:54:32.790Z,1.80
2023-06-04T16:57:00.112Z,1.83
2023-06-04T16:59:27.177Z,1.60
2023-06-04T17:01:54.184Z,1.60
2023-06-04T17:04:21.653Z,1.73
2023-06-04T17:06:48.587Z,1.70
2023-06-04T17:09:15.548Z,1.77
2023-06-04T17:11:45.088Z,1.80
2023-06-04T17:14:12.022Z,1.73
2023-06-04T17:16:39.013Z,1.77
2023-06-04T17:19:06.018Z,1.70
2023-06-04T17:21:32.990Z,1.60
2023-06-04T17:24:00.003Z,1.70
2023-06-04T17:26:27.048Z,1.60
2023-06-04T17:28:56.710Z,1.60
2023-06-04T17:31:23.861Z,1.70
2023-06-04T17:33:51.272Z,1.50
2023-06-04T17:36:18.464Z,1.50
2023-06-04T17:38:45.421Z,1.50
2023-06-04T17:41:12.420Z,1.20
2023-06-04T17:43:39.426Z,1.40
2023-06-04T17:46:09.734Z,1.43
2023-06-04T17:48:37.582Z,1.23
2023-06-04T17:51:04.709Z,1.30
2023-06-04T17:53:32.092Z,1.10
2023-06-04T17:55:59.263Z,1.50
2023-06-04T17:58:26.179Z,1.30
2023-06-04T18:00:53.435Z,1.17
2023-06-04T18:03:23.083Z,1.43
2023-06-04T18:05:50.406Z,1.17
2023-06-04T18:08:17.438Z,1.10
2023-06-04T18:10:44.431Z,1.20
2023-06-04T18:13:12.507Z,0.90
2023-06-04T18:15:39.495Z,1.10
2023-06-04T18:18:06.670Z,1.20
2023-06-04T18:20:36.283Z,1.07
2023-06-04T18:23:03.672Z,1.10
2023-06-04T18:25:30.607Z,0.97
2023-06-04T18:27:57.528Z,0.90
2023-06-04T18:30:24.477Z,1.00
2023-06-04T18:32:51.515Z,0.80
2023-06-04T18:35:18.532Z,0.83
2023-06-04T18:37:48.036Z,0.90
2023-06-04T18:40:15.052Z,1.07
2023-06-04T18:42:41.989Z,0.90
2023-06-04T18:45:09.833Z,1.03
2023-06-04T18:47:37.048Z,1.00
2023-06-04T18:50:04.844Z,1.10
2023-06-04T18:52:31.752Z,0.97
2023-06-04T18:55:01.585Z,0.80
2023-06-04T18:57:28.542Z,0.90
2023-06-04T18:59:55.556Z,1.17
2023-06-04T19:02:22.691Z,0.87
2023-06-04T19:04:49.846Z,0.90
2023-06-04T19:07:16.837Z,1.17
2023-06-04T19:09:43.788Z,0.93
2023-06-04T19:12:13.362Z,0.73
2023-06-04T19:14:40.352Z,0.80
2023-06-04T19:17:07.364Z,0.90
2023-06-04T19:19:34.345Z,0.77
2023-06-04T19:22:01.263Z,0.80
2023-06-04T19:24:28.357Z,1.20
2023-06-04T19:26:55.324Z,0.83
2023-06-04T19:29:24.884Z,0.90
2023-06-04T19:31:51.930Z,0.93
2023-06-04T19:34:18.960Z,0.67
2023-06-04T19:36:45.885Z,1.00
2023-06-04T19:39:12.845Z,0.90
2023-06-04T19:41:39.792Z,1.00
2023-06-04T19:44:06.728Z,0.87
2023-06-04T19:46:36.297Z,0.90
2023-06-04T19:49:03.232Z,0.97
2023-06-04T19:51:30.175Z,0.90
2023-06-04T19:53:57.204Z,0.90
2023-06-04T19:56:24.339Z,1.07
2023-06-04T19:58:51.280Z,0.80
2023-06-04T20:01:18.241Z,0.80
2023-06-04T20:03:47.903Z,0.80
2023-06-04T20:06:14.846Z,0.83
2023-06-04T20:08:41.751Z,0.90
2023-06-04T20:11:08.667Z,0.90
2023-06-04T20:13:36.904Z,0.70
2023-06-04T20:16:04.027Z,1.00
2023-06-04T20:18:30.997Z,0.97
2023-06-04T20:21:00.566Z,1.00
2023-06-04T20:23:27.744Z,1.20
2023-06-04T20:25:54.833Z,0.80
2023-06-04T20:28:21.740Z,0.97
2023-06-04T20:30:48.741Z,0.80
2023-06-04T20:33:15.717Z,1.40
2023-06-04T20:35:42.867Z,0.80
2023-06-04T20:38:12.371Z,0.80
2023-06-04T20:40:39.441Z,0.80
2023-06-04T20:43:06.436Z,1.03
2023-06-04T20:45:33.371Z,0.70
2023-06-04T20:48:00.440Z,1.00
2023-06-04T20:50:27.485Z,0.90
2023-06-04T20:52:54.535Z,1.10
2023-06-04T20:55:24.179Z,0.87
2023-06-04T20:57:51.158Z,0.90
2023-06-04T21:00:18.755Z,0.80
2023-06-04T21:02:45.813Z,1.07
2023-06-04T21:05:12.773Z,0.73
2023-06-04T21:07:39.740Z,0.90
2023-06-04T21:10:07.349Z,0.90
2023-06-04T21:12:36.887Z,0.77
2023-06-04T21:15:04.400Z,1.07
2023-06-04T21:17:31.498Z,0.80
2023-06-04T21:19:58.420Z,1.00
2023-06-04T21:22:25.362Z,0.90
2023-06-04T21:24:52.420Z,1.00
2023-06-04T21:27:19.441Z,0.70
2023-06-04T21:29:48.960Z,0.97
2023-06-04T21:32:15.922Z,0.83
2023-06-04T21:34:42.833Z,1.07
2023-06-04T21:37:09.914Z,1.10
2023-06-04T21:39:36.909Z,0.87
2023-06-04T21:42:04.383Z,1.03
2023-06-04T21:44:31.365Z,0.90
2023-06-04T21:47:01.348Z,1.20
2023-06-04T21:49:28.439Z,1.00
2023-06-04T21:51:55.386Z,1.07
2023-06-04T21:54:22.363Z,0.90
2023-06-04T21:56:49.390Z,0.90
2023-06-04T21:59:16.331Z,1.10
2023-06-04T22:01:43.366Z,0.90
2023-06-04T22:04:12.976Z,0.90
2023-06-04T22:06:39.874Z,1.10
2023-06-04T22:09:06.840Z,0.90
2023-06-04T22:11:33.802Z,0.97
2023-06-04T22:14:00.746Z,1.20
2023-06-04T22:16:27.700Z,1.00
2023-06-04T22:18:54.707Z,0.97
2023-06-04T22:21:24.256Z,1.00
2023-06-04T22:23:51.321Z,1.07
2023-06-04T22:26:28.912Z,0.77
2023-06-04T22:29:04.194Z,1.00
2023-06-04T22:31:31.149Z,1.00
2023-06-04T22:33:58.186Z,0.80
2023-06-04T22:36:27.851Z,0.80
2023-06-04T22:38:54.771Z,1.03
2023-06-04T22:41:21.658Z,0.73
2023-06-04T22:43:48.642Z,0.93
2023-06-04T22:46:15.638Z,0.70
2023-06-04T22:48:42.560Z,0.87
2023-06-04T22:51:09.655Z,0.90
2023-06-04T22:53:39.340Z,0.80
2023-06-04T22:56:06.302Z,0.93
2023-06-04T22:58:33.284Z,0.70
2023-06-04T23:01:00.211Z,0.80
2023-06-04T23:03:27.212Z,0.77
2023-06-04T23:05:54.271Z,0.80
2023-06-04T23:08:21.190Z,0.90
2023-06-04T23:10:50.751Z,1.00
2023-06-04T23:13:17.723Z,1.13
2023-06-04T23:15:44.686Z,0.90
2023-06-04T23:18:11.761Z,1.13
2023-06-04T23:20:38.760Z,0.87
2023-06-04T23:23:05.713Z,0.87
2023-06-04T23:25:32.638Z,1.00
2023-06-04T23:28:02.293Z,1.07
2023-06-04T23:30:29.207Z,0.90
2023-06-04T23:32:56.206Z,0.90
2023-06-04T23:35:23.308Z,1.00
2023-06-04T23:37:50.224Z,0.97
2023-06-04T23:40:17.327Z,0.90
2023-06-04T23:42:44.253Z,1.07
2023-06-04T23:45:13.914Z,1.07
2023-06-04T23:47:40.879Z,1.20
2023-06-04T23:50:08.556Z,1.00
2023-06-04T23:52:35.482Z,0.80
2023-06-04T23:55:02.463Z,1.00
2023-06-04T23:57:29.380Z,1.07
2023-06-04T23:59:56.303Z,1.23
